Naponee, Nebraska
Current Conditions -  °F | °C
As of 7:35 PM on Tuesday 21 Oct 2014 (Local Time) from KHDE Reporting Station
Clear Clear  
Wind Chill: 19°   Ceiling: Unl
Heat Index: 19°   Visibility: 10mi
Dew Point: 13°   Wind: 12mph
Humidity: 64%   Direction: 150°SSE
Pressure: 29.96"   Gusts: NA
Location:  40.08°N, 99.14°W
Report Text: KHDE 220035Z AUTO 15010KT 10SM CLR 19/13 A2996 RMK AO2 T01940125
Loading
Personal Weather Stations






























Interactive Weather Map
Tropical Storm Tracking
New forecast layout! Learn more

10-Day Weather Forecast

Advertisements
Track Severe Weather on mobile